VTPH/HHQ METAR and TAF weather

Enter ICAO airport designator
Station Type Date Time Source
VTPH METAR 2019/12/10 11:00 UTC NOAA

VTPH 101100Z 01003KT 310V040 CAVOK 25/16 Q1011 NOSIG


Station Type Date Time Source
VTPH Decoded METAR 2019/12/10 11:00 UTC NOAA

Hua Hin, Thailand (VTPH) 12-35N 099-57E 6M
Dec 10, 2019 - 06:00 AM EST / 2019.12.10 1100 UTC
Wind: from the N (010 degrees) at 3 MPH (3 KT) (direction variable):0
Visibility: greater than 7 mile(s):0
Temperature: 77 F (25 C)
Dew Point: 60 F (16 C)
Relative Humidity: 57%
Pressure (altimeter): 29.85 in. Hg (1011 hPa)
ob: VTPH 101100Z 01003KT 310V040 CAVOK 25/16 Q1011 NOSIG
cycle: 11

Station Type Date Time Source
VTPH TAF 2019/12/10 18:00 UTC NOAA

TAF VTPH 101700Z 1018/1118 00000KT 8000 NSC
BECMG 1102/1104 02008KT
BECMG 1114/1116 00000KT

Example: see airport list